Time;durP1;ratioP1;P1;durP2;ratioP2;P2;SDS_P1;SDS_P2;PMS_P1;PMS_P2;Temp;Humidity;BMP_temperature;BMP_pressure;BME280_temperature;BME280_humidity;BME280_pressure;Samples;Min_cycle;Max_cycle;Signal;HPM_P1;HPM_P2
2020/12/01 00:02:02;;;;;;;23.90;13.53;;;;;;;0.34;71.02;100048.44;1662701;86;21079;-70
2020/12/01 00:04:30;;;;;;;25.75;14.18;;;;;;;0.32;71.08;100047.45;1662742;86;21090;-69
2020/12/01 00:06:57;;;;;;;23.50;13.05;;;;;;;0.29;71.13;100049.78;1662937;86;21217;-69
2020/12/01 00:09:26;;;;;;;22.00;12.28;;;;;;;0.27;71.20;100045.85;1663182;86;21288;-69
2020/12/01 00:11:54;;;;;;;21.23;11.30;;;;;;;0.24;71.09;100046.05;1663179;86;21087;-69
2020/12/01 00:14:21;;;;;;;25.17;12.65;;;;;;;0.20;71.25;100042.39;1663141;86;21209;-71
2020/12/01 00:16:49;;;;;;;21.27;10.80;;;;;;;0.19;71.45;100051.67;1663276;86;21102;-70
2020/12/01 00:19:17;;;;;;;21.15;12.07;;;;;;;0.18;71.42;100052.45;1692349;84;21480;-71
2020/12/01 00:21:45;;;;;;;23.12;11.93;;;;;;;0.17;71.50;100061.22;1692153;85;21067;-68
2020/12/01 00:24:14;;;;;;;24.95;12.73;;;;;;;0.17;71.69;100065.91;1691995;84;21659;-70
2020/12/01 00:26:43;;;;;;;27.65;16.02;;;;;;;0.18;71.72;100065.15;1691999;84;21095;-69
2020/12/01 00:29:11;;;;;;;29.40;14.10;;;;;;;0.23;71.90;100064.56;1691997;84;21050;-70
2020/12/01 00:31:40;;;;;;;24.75;12.68;;;;;;;0.24;71.83;100068.50;1662955;86;21537;-71
2020/12/01 00:34:10;;;;;;;26.65;14.58;;;;;;;0.28;71.84;100072.11;1663046;86;21066;-69
2020/12/01 00:36:40;;;;;;;29.32;14.83;;;;;;;0.30;71.93;100074.37;1663176;86;21095;-70
2020/12/01 00:39:10;;;;;;;29.67;14.58;;;;;;;0.31;71.90;100072.35;1662956;86;21103;-67
2020/12/01 00:41:38;;;;;;;25.62;13.03;;;;;;;0.31;71.89;100066.00;1663003;86;21107;-69
2020/12/01 00:44:06;;;;;;;25.10;14.03;;;;;;;0.30;71.92;100059.14;1662948;86;21099;-71
2020/12/01 00:46:34;;;;;;;23.40;13.90;;;;;;;0.31;72.03;100060.93;1663118;86;21209;-70
2020/12/01 00:49:02;;;;;;;24.18;12.78;;;;;;;0.33;72.06;100056.81;1663161;86;21042;-69
2020/12/01 00:51:31;;;;;;;26.73;14.63;;;;;;;0.34;72.03;100050.98;1663151;86;21169;-70
2020/12/01 00:53:58;;;;;;;28.30;14.33;;;;;;;0.35;72.10;100049.80;1663107;86;21212;-68
2020/12/01 00:56:26;;;;;;;26.50;15.48;;;;;;;0.34;72.20;100049.70;1663194;86;21630;-69
2020/12/01 00:58:53;;;;;;;30.02;15.60;;;;;;;0.35;72.26;100057.41;1663152;86;21219;-69
2020/12/01 01:01:27;;;;;;;29.50;15.55;;;;;;;0.39;72.32;100055.98;1691484;84;21078;-69
2020/12/01 01:03:55;;;;;;;26.77;13.95;;;;;;;0.40;72.30;100057.34;1650053;86;21131;-70
2020/12/01 01:06:23;;;;;;;31.70;14.68;;;;;;;0.41;72.13;100051.50;1646365;87;21514;-69
2020/12/01 01:08:51;;;;;;;26.73;14.15;;;;;;;0.41;72.16;100048.09;1646092;86;21092;-70
2020/12/01 01:11:29;;;;;;;24.20;12.70;;;;;;;0.38;72.22;100044.05;1646171;87;21238;-68
2020/12/01 01:13:59;;;;;;;24.63;12.37;;;;;;;0.36;72.14;100052.84;1646330;86;21088;-69
2020/12/01 01:16:27;;;;;;;27.58;14.15;;;;;;;0.37;72.30;100057.13;1646431;87;21526;-68
2020/12/01 01:18:54;;;;;;;25.48;14.15;;;;;;;0.35;72.33;100057.41;1646321;87;21035;-68
2020/12/01 01:21:23;;;;;;;23.67;12.40;;;;;;;0.36;72.33;100057.92;1646348;86;21530;-71
2020/12/01 01:23:52;;;;;;;24.30;12.25;;;;;;;0.39;72.25;100065.75;1632505;88;21050;-71
2020/12/01 01:26:20;;;;;;;23.45;12.80;;;;;;;0.38;72.30;100052.93;1632285;88;21127;-70
2020/12/01 01:28:48;;;;;;;21.68;12.68;;;;;;;0.37;72.40;100059.67;1689042;85;21074;-68
2020/12/01 01:31:19;;;;;;;18.70;11.03;;;;;;;0.39;72.45;100058.13;1689056;84;21520;-69
2020/12/01 01:33:47;;;;;;;21.75;11.18;;;;;;;0.42;72.39;100058.33;1677339;84;21397;-69
2020/12/01 01:36:15;;;;;;;23.42;11.08;;;;;;;0.43;72.40;100061.75;1646084;86;21225;-69
2020/12/01 01:38:43;;;;;;;23.22;11.55;;;;;;;0.45;72.46;100072.02;1646324;87;21486;-72
2020/12/01 01:41:11;;;;;;;19.52;10.78;;;;;;;0.46;72.48;100065.79;1646196;87;21067;-70
2020/12/01 01:43:40;;;;;;;16.67;9.15;;;;;;;0.47;72.39;100067.54;1646266;87;21530;-71
2020/12/01 01:46:35;;;;;;;17.98;10.55;;;;;;;0.46;72.37;100068.33;1632656;88;21111;-72
2020/12/01 01:49:06;;;;;;;20.90;9.30;;;;;;;0.48;72.41;100069.69;1682449;84;21213;-71
2020/12/01 01:51:38;;;;;;;19.12;9.78;;;;;;;0.48;72.45;100055.32;1677436;85;21498;-71
2020/12/01 01:54:06;;;;;;;;;;;;;;;0.47;72.44;100052.70;1679742;85;21201;-71
2020/12/01 01:56:39;;;;;;;17.60;9.75;;;;;;;0.40;72.64;100047.58;1677224;84;20238;-69
2020/12/01 01:59:08;;;;;;;17.75;9.43;;;;;;;0.37;72.79;100052.45;1677303;84;21284;-72
2020/12/01 02:01:36;;;;;;;19.87;9.63;;;;;;;0.36;72.85;100053.23;1677011;84;21225;-69
2020/12/01 02:04:09;;;;;;;18.17;8.65;;;;;;;0.34;72.99;100059.47;1694777;83;21086;-68
2020/12/01 02:06:44;;;;;;;18.48;9.58;;;;;;;0.33;73.15;100057.72;1672961;84;21086;-70
2020/12/01 02:09:20;;;;;;;16.17;9.55;;;;;;;0.33;73.25;100057.72;1701398;84;21110;-67
2020/12/01 02:11:49;;;;;;;20.10;10.58;;;;;;;0.36;73.29;100064.66;1702282;84;21094;-67
2020/12/01 02:14:28;;;;;;;20.57;10.85;;;;;;;0.39;73.36;100057.25;1702336;84;21070;-67
2020/12/01 02:17:16;;;;;;;17.07;9.50;;;;;;;0.42;73.46;100054.92;1702232;84;21532;-69
2020/12/01 02:19:46;;;;;;;20.35;11.25;;;;;;;0.41;73.69;100050.63;1702042;84;21042;-68
2020/12/01 02:22:21;;;;;;;19.70;10.72;;;;;;;0.45;73.68;100058.93;1702369;84;21074;-69
2020/12/01 02:24:51;;;;;;;21.48;10.23;;;;;;;0.46;73.75;100055.63;1702042;84;21098;-70
2020/12/01 02:27:24;;;;;;;19.35;9.73;;;;;;;0.47;73.83;100052.70;1702298;84;21216;-69
2020/12/01 02:29:58;;;;;;;16.70;9.70;;;;;;;0.46;73.91;100056.91;1702216;84;21090;-68
2020/12/01 02:32:28;;;;;;;16.77;9.30;;;;;;;0.46;74.21;100055.99;1702288;84;21074;-68
2020/12/01 02:35:02;;;;;;;17.55;9.80;;;;;;;0.42;74.23;100066.34;1673057;86;21216;-70
2020/12/01 02:37:30;;;;;;;15.10;9.00;;;;;;;0.41;74.20;100064.20;1672948;84;21042;-68
2020/12/01 02:40:01;;;;;;;19.00;9.93;;;;;;;0.39;74.57;100080.11;1672988;86;21083;-70
2020/12/01 02:42:29;;;;;;;17.92;9.48;;;;;;;0.37;74.67;100080.38;1702335;84;21034;-68
2020/12/01 02:44:57;;;;;;;18.30;9.80;;;;;;;0.39;74.68;100082.64;1673078;86;21059;-69
2020/12/01 02:47:27;;;;;;;16.20;9.15;;;;;;;0.41;74.71;100092.52;1698614;84;21042;-70
2020/12/01 02:49:55;;;;;;;15.43;8.75;;;;;;;0.43;74.75;100093.48;1673218;86;21202;-69
2020/12/01 02:52:23;;;;;;;16.87;9.90;;;;;;;0.45;74.80;100089.41;1702058;84;21042;-68
2020/12/01 02:54:52;;;;;;;18.35;10.65;;;;;;;0.49;74.81;100091.78;1672983;86;21497;-69
2020/12/01 02:57:20;;;;;;;17.65;9.83;;;;;;;0.52;74.80;100089.45;1672944;84;21102;-68
2020/12/01 02:59:47;;;;;;;16.48;10.43;;;;;;;0.54;74.79;100095.13;1702294;84;21093;-68
2020/12/01 03:02:15;;;;;;;18.80;10.30;;;;;;;0.54;74.84;100090.05;1702053;84;21114;-71
2020/12/01 03:04:43;;;;;;;18.55;10.08;;;;;;;0.56;75.01;100083.42;1676740;84;21110;-72
2020/12/01 03:07:11;;;;;;;20.48;9.43;;;;;;;0.58;74.95;100083.11;1677242;84;21561;-68
2020/12/01 03:09:38;;;;;;;19.35;10.25;;;;;;;0.59;74.91;100091.24;1677476;84;21098;-70
2020/12/01 03:12:06;;;;;;;20.12;10.25;;;;;;;0.59;74.85;100073.46;1646639;87;21226;-68
2020/12/01 03:14:34;;;;;;;20.27;10.93;;;;;;;0.57;74.96;100069.93;1677221;85;21075;-68
2020/12/01 03:17:02;;;;;;;22.10;11.05;;;;;;;0.55;74.97;100060.05;1677451;85;21091;-68
2020/12/01 03:19:29;;;;;;;22.95;11.57;;;;;;;0.53;74.99;100068.34;1677471;85;21107;-68
2020/12/01 03:21:57;;;;;;;23.40;11.70;;;;;;;0.50;75.19;100066.87;1677542;85;21561;-68
2020/12/01 03:24:25;;;;;;;20.95;11.05;;;;;;;0.52;75.22;100078.02;1677505;85;21201;-68
2020/12/01 03:26:52;;;;;;;24.18;11.95;;;;;;;0.51;75.28;100082.22;1677407;85;21067;-69
2020/12/01 03:29:20;;;;;;;21.90;12.53;;;;;;;0.52;75.37;100090.72;1677533;84;21038;-68
2020/12/01 03:31:48;;;;;;;23.42;13.22;;;;;;;0.57;75.29;100093.19;1677554;85;21620;-70
2020/12/01 03:34:15;;;;;;;24.75;13.20;;;;;;;0.57;75.34;100086.44;1646741;86;21209;-69
2020/12/01 03:36:45;;;;;;;25.77;13.58;;;;;;;0.59;75.42;100095.05;1677467;85;21099;-69
2020/12/01 03:39:13;;;;;;;26.48;13.48;;;;;;;0.61;75.38;100098.59;1677540;84;21205;-67
2020/12/01 03:41:40;;;;;;;21.60;11.80;;;;;;;0.61;75.39;100088.42;1677321;84;21221;-67
2020/12/01 03:44:09;;;;;;;21.87;12.23;;;;;;;0.59;75.45;100079.81;1646608;87;21087;-70
2020/12/01 03:46:37;;;;;;;23.77;12.78;;;;;;;0.56;75.67;100089.77;1677400;85;21044;-69
2020/12/01 03:49:05;;;;;;;23.65;13.22;;;;;;;0.53;75.75;100095.01;1677446;85;21486;-68
2020/12/01 03:51:32;;;;;;;24.32;13.58;;;;;;;0.52;75.78;100101.75;1677323;85;21125;-68
2020/12/01 03:54:00;;;;;;;23.87;13.88;;;;;;;0.52;75.88;100097.94;1646577;87;21096;-70
2020/12/01 03:56:28;;;;;;;26.45;14.28;;;;;;;0.51;75.98;100096.19;1677381;84;21220;-70
2020/12/01 03:58:55;;;;;;;21.17;11.73;;;;;;;0.48;76.22;100084.52;1646785;86;21995;-70
2020/12/01 04:01:23;;;;;;;25.92;12.28;;;;;;;0.47;76.37;100088.25;1677432;85;21454;-70
2020/12/01 04:03:50;;;;;;;25.82;12.65;;;;;;;0.44;76.45;100088.92;1677271;85;21135;-67
2020/12/01 04:06:18;;;;;;;23.00;12.93;;;;;;;0.43;76.50;100080.79;1663150;86;21091;-68
2020/12/01 04:08:46;;;;;;;24.87;12.75;;;;;;;0.44;76.58;100081.30;1662952;86;21078;-68
2020/12/01 04:11:14;;;;;;;20.43;11.28;;;;;;;0.42;76.59;100078.64;1663102;86;21086;-68
2020/12/01 04:13:41;;;;;;;23.10;12.80;;;;;;;0.40;76.67;100079.31;1692282;84;21094;-69
2020/12/01 04:16:09;;;;;;;21.48;12.25;;;;;;;0.38;76.83;100074.16;1692251;85;21501;-69
2020/12/01 04:18:36;;;;;;;20.02;11.88;;;;;;;0.36;76.78;100070.63;1692181;84;21066;-71
2020/12/01 04:21:04;;;;;;;21.55;12.25;;;;;;;0.33;76.98;100072.95;1663157;86;21091;-68
2020/12/01 04:23:32;;;;;;;25.50;12.98;;;;;;;0.33;77.07;100079.66;1663205;86;21624;-70
2020/12/01 04:25:59;;;;;;;22.50;12.88;;;;;;;0.29;77.12;100080.24;1663021;86;21169;-67
2020/12/01 04:28:27;;;;;;;21.87;12.70;;;;;;;0.27;77.26;100086.86;1663132;86;21086;-70
2020/12/01 04:30:55;;;;;;;21.55;12.15;;;;;;;0.23;77.44;100083.25;1635334;88;21489;-68
2020/12/01 04:33:22;;;;;;;23.83;13.08;;;;;;;0.19;77.71;100083.40;1670186;86;21058;-68
2020/12/01 04:35:50;;;;;;;22.05;14.20;;;;;;;0.16;78.05;100082.31;1635495;88;21099;-69
2020/12/01 04:38:18;;;;;;;28.67;13.53;;;;;;;0.11;78.36;100079.84;1672560;84;21078;-69
2020/12/01 04:40:46;;;;;;;20.80;12.65;;;;;;;0.08;78.53;100079.23;1672684;84;21477;-70
2020/12/01 04:43:39;;;;;;;22.80;13.95;;;;;;;0.06;78.99;100071.91;1672722;85;21205;-69
2020/12/01 04:46:15;;;;;;;25.50;14.68;;;;;;;0.04;79.21;100073.44;1672413;84;21062;-70
2020/12/01 04:48:51;;;;;;;23.98;13.13;;;;;;;-0.01;79.61;100072.23;1672448;84;21204;-67
2020/12/01 04:51:54;;;;;;;26.85;14.98;;;;;;;-0.03;79.71;100075.05;1672541;84;21070;-68
2020/12/01 04:54:53;;;;;;;24.75;15.38;;;;;;;-0.06;79.82;100077.37;1730086;82;21017;-66
2020/12/01 04:57:43;;;;;;;28.17;16.42;;;;;;;-0.04;80.04;100082.18;1730307;82;21179;-71
2020/12/01 05:00:54;;;;;;;28.07;15.25;;;;;;;-0.03;80.16;100083.53;1730353;82;21471;-70
2020/12/01 05:04:06;;;;;;;26.25;14.33;;;;;;;-0.04;80.35;100086.86;1730177;83;21049;-71
2020/12/01 05:09:26;;;;;;;25.88;14.85;;;;;;;-0.10;80.78;100093.14;1730298;83;21246;-69
2020/12/01 05:12:02;;;;;;;29.80;15.78;;;;;;;-0.10;80.92;100100.39;1729642;82;21110;-68
2020/12/01 05:14:42;;;;;;;33.95;15.90;;;;;;;-0.09;81.03;100094.92;1724012;82;21219;-70
2020/12/01 05:17:37;;;;;;;32.13;17.15;;;;;;;-0.09;81.16;100101.27;1729933;82;21061;-69
2020/12/01 05:20:06;;;;;;;30.37;16.77;;;;;;;-0.06;81.24;100104.02;1719170;82;21516;-70
2020/12/01 05:22:38;;;;;;;28.02;15.70;;;;;;;-0.05;81.36;100099.42;1678418;82;21842;-68
2020/12/01 05:25:18;;;;;;;26.07;15.88;;;;;;;-0.03;81.39;100097.88;1672775;82;21557;-67
2020/12/01 05:27:46;;;;;;;32.30;16.27;;;;;;;-0.02;81.62;100094.59;1693366;82;21571;-67
2020/12/01 05:30:22;;;;;;;29.48;17.35;;;;;;;-0.04;81.80;100095.74;1693891;82;21179;-68
2020/12/01 05:33:01;;;;;;;26.90;16.00;;;;;;;-0.05;82.02;100094.34;1730368;82;21231;-69
2020/12/01 05:35:33;;;;;;;28.40;17.00;;;;;;;-0.08;82.43;100096.67;1730381;82;21196;-67
2020/12/01 05:38:19;;;;;;;27.85;17.52;;;;;;;-0.13;82.68;100099.27;1730365;82;21025;-71
2020/12/01 05:40:54;;;;;;;32.60;15.35;;;;;;;-0.19;83.04;100101.38;1730135;82;21045;-68
2020/12/01 05:43:38;;;;;;;34.80;18.20;;;;;;;-0.23;83.25;100106.60;1721851;82;21080;-71
2020/12/01 05:46:26;;;;;;;28.40;15.63;;;;;;;-0.28;83.47;100097.42;1730092;82;21226;-69
2020/12/01 05:49:00;;;;;;;28.38;16.12;;;;;;;-0.26;83.62;100101.31;1719166;82;21064;-69
2020/12/01 05:51:47;;;;;;;31.07;16.52;;;;;;;-0.28;83.86;100096.16;1750533;81;21066;-68
2020/12/01 05:54:26;;;;;;;29.20;16.40;;;;;;;-0.28;83.99;100097.42;1728895;80;21684;-69
2020/12/01 05:56:53;;;;;;;33.05;17.77;;;;;;;-0.28;84.07;100101.23;1752389;80;21026;-73
2020/12/01 05:59:25;;;;;;;28.30;16.90;;;;;;;-0.25;84.05;100096.77;1763076;80;21173;-71
2020/12/01 06:02:06;;;;;;;30.43;16.48;;;;;;;-0.24;84.08;100095.97;1753117;81;21180;-69
2020/12/01 06:04:34;;;;;;;34.70;17.55;;;;;;;-0.22;84.13;100102.92;1747845;82;21482;-67
2020/12/01 06:07:18;;;;;;;32.25;17.37;;;;;;;-0.22;84.20;100094.05;1755932;81;21181;-69
2020/12/01 06:10:19;;;;;;;28.70;16.00;;;;;;;-0.22;84.30;100099.11;1755810;81;21182;-71
2020/12/01 06:13:09;;;;;;;30.43;17.60;;;;;;;-0.18;84.30;100108.20;1756063;81;21064;-70
2020/12/01 06:15:42;;;;;;;30.55;18.07;;;;;;;-0.15;84.22;100109.33;1756166;81;21032;-70
2020/12/01 06:18:25;;;;;;;27.87;16.70;;;;;;;-0.07;84.07;100105.68;1756246;81;21083;-72
2020/12/01 06:21:06;;;;;;;32.93;17.67;;;;;;;-0.01;83.92;100107.77;1755955;81;21627;-71
2020/12/01 06:23:59;;;;;;;29.60;16.93;;;;;;;0.03;83.81;100109.76;1756432;82;21068;-68
2020/12/01 06:27:20;;;;;;;29.82;16.80;;;;;;;0.09;83.64;100105.10;1756060;81;21048;-72
2020/12/01 06:30:04;;;;;;;29.95;17.02;;;;;;;0.17;83.43;100109.45;1755956;82;21032;-73
2020/12/01 06:33:07;;;;;;;40.17;17.32;;;;;;;0.24;83.20;100109.50;1756066;81;21048;-74
2020/12/01 06:36:01;;;;;;;29.07;16.75;;;;;;;0.28;83.03;100111.10;1754679;81;21060;-69
2020/12/01 06:38:55;;;;;;;33.00;17.45;;;;;;;0.35;82.88;100114.53;1756258;81;21044;-74
2020/12/01 06:41:24;;;;;;;30.85;17.27;;;;;;;0.39;82.69;100123.27;1755550;81;21048;-70
2020/12/01 06:43:56;;;;;;;30.15;16.97;;;;;;;0.40;82.54;100123.75;1755260;82;21225;-71
2020/12/01 06:46:47;;;;;;;30.10;17.52;;;;;;;0.41;82.53;100127.68;1756250;82;21169;-71
2020/12/01 06:49:21;;;;;;;30.72;17.80;;;;;;;0.46;82.49;100126.73;1756235;81;21541;-72
2020/12/01 06:51:52;;;;;;;30.85;18.20;;;;;;;0.51;82.35;100130.48;1756295;82;21467;-71
2020/12/01 06:54:20;;;;;;;30.60;16.85;;;;;;;0.56;82.11;100120.61;1756167;80;21107;-69
2020/12/01 06:56:59;;;;;;;27.42;15.10;;;;;;;0.59;81.94;100114.50;1756180;82;21048;-75
2020/12/01 06:59:27;;;;;;;30.52;15.83;;;;;;;0.64;81.72;100126.73;1726505;82;21490;-67
2020/12/01 07:02:24;;;;;;;29.77;16.35;;;;;;;0.64;81.49;100130.94;1756125;82;21056;-75
2020/12/01 07:05:15;;;;;;;32.75;17.27;;;;;;;0.65;81.57;100127.61;1755938;82;21031;-76
2020/12/01 07:07:44;;;;;;;26.10;14.87;;;;;;;0.70;81.49;100126.27;1752175;81;21075;-69
2020/12/01 07:10:30;;;;;;;27.75;15.05;;;;;;;0.81;81.27;100122.78;1757894;81;21103;-72
2020/12/01 07:13:42;;;;;;;27.37;15.18;;;;;;;0.90;80.90;100121.67;1721693;83;21067;-72
2020/12/01 07:16:30;;;;;;;23.35;12.80;;;;;;;0.95;80.55;100134.30;1721767;82;21606;-72
2020/12/01 07:19:06;;;;;;;23.47;12.30;;;;;;;0.95;79.89;100141.92;1722423;83;21212;-70
2020/12/01 07:22:11;;;;;;;24.12;12.05;;;;;;;0.86;79.72;100145.97;1722084;82;21257;-70
2020/12/01 07:27:48;;;;;;;20.62;12.65;;;;;;;0.78;79.73;100152.20;1762776;79;21534;-74
2020/12/01 07:30:25;;;;;;;23.65;13.43;;;;;;;0.76;79.74;100149.94;1764422;80;21010;-70
2020/12/01 07:33:03;;;;;;;24.82;13.45;;;;;;;0.75;79.82;100151.99;1764571;81;21204;-68
2020/12/01 07:35:39;;;;;;;25.70;14.43;;;;;;;0.76;79.82;100146.12;1765259;81;21013;-72
2020/12/01 07:38:31;;;;;;;22.27;12.85;;;;;;;0.75;79.85;100143.09;1764990;81;21191;-76
2020/12/01 07:41:23;;;;;;;22.95;13.13;;;;;;;0.79;79.75;100140.88;1764932;80;21018;-71
2020/12/01 07:44:10;;;;;;;27.00;13.85;;;;;;;0.89;79.73;100135.13;1764810;81;21572;-68
2020/12/01 07:49:20;;;;;;;24.07;14.47;;;;;;;1.09;79.32;100132.28;1765018;81;21030;-66
2020/12/01 07:51:51;;;;;;;25.72;13.90;;;;;;;1.18;79.28;100133.30;1765347;80;21115;-69
2020/12/01 07:54:23;;;;;;;22.00;13.00;;;;;;;1.29;79.02;100136.16;1764782;81;21018;-71
2020/12/01 07:56:51;;;;;;;26.50;12.70;;;;;;;1.37;78.52;100137.94;1733019;83;21128;-72
2020/12/01 07:59:19;;;;;;;28.70;13.32;;;;;;;1.40;77.99;100130.14;1765103;81;21413;-69
2020/12/01 08:01:47;;;;;;;29.12;13.65;;;;;;;1.41;77.89;100138.25;1733091;82;21216;-73
2020/12/01 08:04:19;;;;;;;23.98;13.53;;;;;;;1.44;77.81;100131.21;1764965;81;21002;-69
2020/12/01 08:07:06;;;;;;;25.50;13.58;;;;;;;1.45;77.51;100127.88;1764528;80;21062;-76
2020/12/01 08:09:30;;;;;;;24.12;13.25;;;;;;;1.48;77.31;100137.00;1763751;81;21603;-74
2020/12/01 08:12:06;;;;;;;31.52;14.68;;;;;;;1.51;77.29;100134.25;1764640;81;21511;-72
2020/12/01 08:14:35;;;;;;;28.75;13.98;;;;;;;1.60;77.21;100140.72;1732814;83;21043;-71
2020/12/01 08:17:15;;;;;;;25.40;12.93;;;;;;;1.67;76.94;100142.89;1764614;81;21040;-70
2020/12/01 08:19:43;;;;;;;25.50;12.82;;;;;;;1.69;76.34;100142.60;1764676;81;21042;-68
2020/12/01 08:22:14;;;;;;;27.65;13.65;;;;;;;1.57;75.88;100144.34;1764605;81;21164;-68
2020/12/01 08:24:43;;;;;;;23.75;13.65;;;;;;;1.44;76.30;100138.44;1733598;81;21045;-69
2020/12/01 08:27:46;;;;;;;25.50;12.98;;;;;;;1.40;76.34;100137.77;1734624;83;21252;-72
2020/12/01 08:30:30;;;;;;;29.32;11.75;;;;;;;1.40;76.58;100135.23;1743271;81;21184;-74
2020/12/01 08:33:09;;;;;;;20.23;13.08;;;;;;;1.42;76.46;100131.49;1755034;81;21508;-72
2020/12/01 08:35:44;;;;;;;19.23;10.30;;;;;;;1.49;76.24;100139.63;1762688;81;21165;-73
2020/12/01 08:38:49;;;;;;;21.95;11.48;;;;;;;1.55;75.73;100137.00;1762798;81;21001;-69
2020/12/01 08:41:33;;;;;;;20.32;11.25;;;;;;;1.52;75.76;100136.00;1762852;80;21057;-69
2020/12/01 08:44:25;;;;;;;22.62;11.90;;;;;;;1.64;75.83;100141.03;1761839;80;21717;-72
2020/12/01 08:46:54;;;;;;;22.87;11.33;;;;;;;1.75;75.75;100134.08;1762039;80;21030;-67
2020/12/01 08:49:41;;;;;;;18.90;11.68;;;;;;;1.94;75.26;100133.62;1763020;81;21686;-75
2020/12/01 08:52:02;;;;;;;19.60;11.18;;;;;;;2.00;74.86;100128.03;1762690;81;21060;-76
2020/12/01 08:54:36;;;;;;;17.23;9.88;;;;;;;2.03;74.17;100129.48;1762803;80;21053;-71
2020/12/01 08:57:18;;;;;;;19.70;9.28;;;;;;;1.95;73.83;100127.33;1738033;81;21073;-70
2020/12/01 08:59:53;;;;;;;13.68;8.53;;;;;;;1.92;73.93;100120.78;1762951;80;21066;-74
2020/12/01 09:02:21;;;;;;;15.15;9.20;;;;;;;1.88;73.47;100119.20;1763059;81;21006;-73
2020/12/01 09:05:00;;;;;;;15.63;9.35;;;;;;;1.84;73.65;100115.59;1762963;81;21069;-71
2020/12/01 09:07:32;;;;;;;18.98;9.73;;;;;;;1.83;73.60;100116.39;1762749;80;21041;-67
2020/12/01 09:10:17;;;;;;;15.75;10.00;;;;;;;1.83;73.33;100110.03;1762962;81;21037;-70
2020/12/01 09:12:52;;;;;;;15.35;8.53;;;;;;;1.82;73.41;100115.89;1762893;81;21022;-69
2020/12/01 09:15:35;;;;;;;18.15;9.83;;;;;;;1.73;72.77;100119.09;1762770;81;21188;-74
2020/12/01 09:23:17;;;;;;;21.00;11.22;;;;;;;1.49;73.75;100100.20;1738414;81;21140;-70
2020/12/01 09:25:47;;;;;;;18.98;9.53;;;;;;;1.46;73.66;100105.49;1763510;80;21051;-70
2020/12/01 09:28:25;;;;;;;18.27;9.63;;;;;;;1.43;73.78;100102.75;1773502;81;21516;-73
2020/12/01 09:30:53;;;;;;;15.83;9.10;;;;;;;1.39;73.89;100101.66;1741418;82;21093;-71
2020/12/01 09:33:23;;;;;;;21.20;9.83;;;;;;;1.33;73.87;100098.72;1773740;81;21074;-68
2020/12/01 09:35:50;;;;;;;16.65;9.88;;;;;;;1.33;74.10;100099.12;1741369;82;21176;-72
2020/12/01 09:38:18;;;;;;;14.78;9.40;;;;;;;1.30;74.41;100095.98;1741471;82;21124;-67
2020/12/01 09:40:49;;;;;;;14.43;8.70;;;;;;;1.31;74.51;100092.64;1773575;81;21196;-71
2020/12/01 09:43:28;;;;;;;18.77;9.05;;;;;;;1.33;74.25;100101.66;1741538;82;21058;-69
2020/12/01 09:45:53;;;;;;;17.40;8.25;;;;;;;1.32;74.14;100093.12;1793459;80;21014;-70
2020/12/01 09:48:39;;;;;;;15.50;8.03;;;;;;;1.30;74.08;100089.62;1795014;80;20983;-72
2020/12/01 09:51:06;;;;;;;14.70;7.83;;;;;;;1.32;74.06;100094.39;1794812;80;21018;-72
2020/12/01 09:59:04;;;;;;;19.30;7.92;;;;;;;1.17;73.87;100094.66;1741450;82;21053;-76
2020/12/01 10:09:10;;;;;;;16.20;7.62;;;;;;;1.11;74.78;100090.45;1740116;81;21089;-65
2020/12/01 10:35:28;;;;;;;14.43;7.78;;;;;;;1.79;74.16;100076.65;1752224;82;21186;-74
2020/12/01 10:37:59;;;;;;;11.95;6.60;;;;;;;1.70;72.99;100074.37;1752353;82;21048;-70
2020/12/01 10:40:29;;;;;;;14.23;7.65;;;;;;;1.50;73.06;100070.19;1752167;82;21180;-70
2020/12/01 10:42:57;;;;;;;13.32;7.42;;;;;;;1.32;73.81;100062.61;1752243;82;21473;-77
2020/12/01 10:45:28;;;;;;;15.83;8.83;;;;;;;1.19;74.52;100069.83;1752267;82;21209;-77
2020/12/01 10:47:57;;;;;;;13.60;7.58;;;;;;;1.16;75.03;100062.40;1752266;82;21173;-76
2020/12/01 10:50:30;;;;;;;14.80;6.65;;;;;;;1.15;74.93;100063.20;1752033;82;21059;-72
2020/12/01 10:52:58;;;;;;;13.88;8.33;;;;;;;1.11;75.29;100059.55;1752332;82;21019;-72
2020/12/01 10:55:29;;;;;;;15.38;8.25;;;;;;;1.08;75.78;100067.86;1752449;82;21051;-71
2020/12/01 10:57:58;;;;;;;12.30;7.17;;;;;;;1.03;76.26;100062.86;1752387;82;21200;-70
2020/12/01 11:00:27;;;;;;;12.82;7.58;;;;;;;1.06;76.40;100068.14;1751954;82;21058;-74
2020/12/01 11:02:56;;;;;;;10.93;6.87;;;;;;;1.10;76.44;100065.42;1752342;82;21445;-70
2020/12/01 11:05:30;;;;;;;11.68;7.87;;;;;;;1.13;76.36;100059.66;1752186;82;21051;-77
2020/12/01 11:08:00;;;;;;;13.13;7.17;;;;;;;1.22;76.69;100070.41;1752365;82;21201;-64
2020/12/01 11:10:28;;;;;;;14.00;8.05;;;;;;;1.34;76.64;100067.80;1752250;82;21517;-67
2020/12/01 11:12:56;;;;;;;14.05;8.33;;;;;;;1.37;76.36;100068.88;1752099;82;21225;-71
2020/12/01 11:15:24;;;;;;;17.32;9.05;;;;;;;1.36;76.56;100066.25;1752019;82;21185;-74
2020/12/01 11:17:51;;;;;;;14.33;8.65;;;;;;;1.39;76.42;100063.90;1752148;81;21043;-75
2020/12/01 11:20:19;;;;;;;12.25;7.83;;;;;;;1.40;76.67;100061.84;1752173;82;21055;-70
2020/12/01 11:22:50;;;;;;;12.20;7.05;;;;;;;1.36;76.79;100063.31;1752694;82;21184;-70
2020/12/01 11:25:21;;;;;;;14.03;8.10;;;;;;;1.28;76.85;100062.81;1752384;82;21473;-66
2020/12/01 11:27:49;;;;;;;13.18;7.45;;;;;;;1.21;77.34;100055.56;1751992;81;21097;-75
2020/12/01 11:30:20;;;;;;;12.05;6.30;;;;;;;1.16;77.92;100052.23;1752063;82;21051;-67
2020/12/01 11:32:48;;;;;;;11.95;6.97;;;;;;;1.10;77.79;100051.84;1752406;82;21487;-71
2020/12/01 11:35:21;;;;;;;12.90;6.67;;;;;;;0.99;78.18;100050.75;1752005;82;21051;-65
2020/12/01 11:37:51;;;;;;;8.80;5.58;;;;;;;0.96;78.84;100044.16;1752448;82;21473;-68
2020/12/01 11:40:19;;;;;;;10.55;5.97;;;;;;;0.96;79.36;100049.25;1752227;82;21074;-68
2020/12/01 11:42:47;;;;;;;9.55;5.22;;;;;;;0.90;79.26;100045.44;1752133;82;21020;-69
2020/12/01 11:45:16;;;;;;;9.53;5.78;;;;;;;0.82;79.51;100045.80;1752142;82;21625;-72
2020/12/01 11:47:44;;;;;;;10.05;5.20;;;;;;;0.77;79.94;100045.01;1752414;82;21079;-74
2020/12/01 11:50:13;;;;;;;9.63;5.75;;;;;;;0.69;80.08;100044.49;1752280;82;21193;-74
2020/12/01 11:52:41;;;;;;;9.03;5.50;;;;;;;0.63;80.33;100044.94;1752241;82;21480;-70
2020/12/01 11:55:10;;;;;;;9.50;5.47;;;;;;;0.59;80.90;100046.80;1749683;82;21212;-70
2020/12/01 11:57:38;;;;;;;11.00;6.25;;;;;;;0.56;81.19;100040.24;1752172;82;21054;-69
2020/12/01 12:00:09;;;;;;;11.90;6.28;;;;;;;0.59;81.64;100038.30;1752103;82;21059;-73
2020/12/01 12:02:38;;;;;;;11.15;6.30;;;;;;;0.61;81.80;100038.89;1751787;82;21074;-74
2020/12/01 12:05:05;;;;;;;11.88;6.58;;;;;;;0.60;82.03;100035.84;1752227;82;21070;-71
2020/12/01 12:07:33;;;;;;;12.43;6.80;;;;;;;0.57;82.19;100028.02;1752204;82;21201;-71
2020/12/01 12:10:05;;;;;;;12.98;7.15;;;;;;;0.57;82.54;100024.61;1751975;82;21055;-73
2020/12/01 12:12:32;;;;;;;11.28;6.47;;;;;;;0.55;82.97;100032.11;1752153;82;21055;-74
2020/12/01 12:15:00;;;;;;;13.18;7.72;;;;;;;0.58;82.83;100037.78;1752559;82;21197;-65
2020/12/01 12:17:28;;;;;;;12.43;7.62;;;;;;;0.61;82.96;100029.09;1752739;82;21457;-76
2020/12/01 12:19:56;;;;;;;14.78;7.75;;;;;;;0.59;83.31;100032.83;1752409;82;21062;-72
2020/12/01 12:22:23;;;;;;;13.58;7.85;;;;;;;0.62;83.62;100035.96;1751495;82;21104;-68
2020/12/01 12:24:51;;;;;;;13.95;7.17;;;;;;;0.59;83.58;100035.36;1752083;81;21380;-76
2020/12/01 12:27:18;;;;;;;17.20;6.95;;;;;;;0.55;83.88;100032.11;1755524;81;21227;-70
2020/12/01 12:29:46;;;;;;;14.13;7.92;;;;;;;0.56;84.24;100041.52;1734116;81;21052;-71
2020/12/01 12:32:14;;;;;;;17.77;7.22;;;;;;;0.59;84.16;100041.72;1768540;81;21200;-69
2020/12/01 12:34:42;;;;;;;11.53;6.97;;;;;;;0.60;84.09;100053.63;1734625;81;21083;-69
2020/12/01 12:37:10;;;;;;;14.75;7.40;;;;;;;0.58;84.26;100052.63;1794265;80;21022;-70
2020/12/01 12:39:38;;;;;;;10.80;7.25;;;;;;;0.57;84.48;100059.77;1799804;80;21080;-72